Time;durP1;ratioP1;P1;durP2;ratioP2;P2;SDS_P1;SDS_P2;PMS_P1;PMS_P2;Temp;Humidity;BMP_temperature;BMP_pressure;BME280_temperature;BME280_humidity;BME280_pressure;Samples;Min_cycle;Max_cycle;Signal;HPM_P1;HPM_P2
2023/06/29 00:01:02;;;;;;;37.55;27.75;;;19.10;99.90;;;;;;5070017;28;20041;-56
2023/06/29 00:03:28;;;;;;;42.72;30.60;;;19.10;99.90;;;;;;5074174;28;20041;-57
2023/06/29 00:05:57;;;;;;;39.08;29.90;;;19.10;99.90;;;;;;5075455;28;20101;-57
2023/06/29 00:08:27;;;;;;;43.03;29.58;;;19.10;99.90;;;;;;5069745;28;20048;-57
2023/06/29 00:10:54;;;;;;;61.58;25.77;;;19.10;99.90;;;;;;5080910;28;20041;-58
2023/06/29 00:13:20;;;;;;;39.50;30.63;;;19.10;99.90;;;;;;5058672;28;20071;-57
2023/06/29 00:15:46;;;;;;;37.60;28.35;;;19.10;99.90;;;;;;5072243;28;20095;-57
2023/06/29 00:18:15;;;;;;;47.47;31.33;;;19.10;99.90;;;;;;5064064;28;20037;-57
2023/06/29 00:20:42;;;;;;;41.42;30.10;;;19.10;99.90;;;;;;5071621;28;20055;-57
2023/06/29 00:23:08;;;;;;;38.25;29.63;;;19.10;99.90;;;;;;5063943;28;20041;-56
2023/06/29 00:25:34;;;;;;;36.47;28.92;;;19.10;99.90;;;;;;5065484;28;20547;-57
2023/06/29 00:28:01;;;;;;;38.95;29.73;;;19.10;99.90;;;;;;5071993;28;20497;-57
2023/06/29 00:30:27;;;;;;;47.58;33.05;;;19.10;99.90;;;;;;5068687;28;20041;-57
2023/06/29 00:32:53;;;;;;;39.65;30.15;;;19.10;99.90;;;;;;5062699;28;20055;-55
2023/06/29 00:35:18;;;;;;;44.90;31.83;;;19.10;99.90;;;;;;5065364;28;20049;-57
2023/06/29 00:37:44;;;;;;;45.20;31.25;;;19.10;99.90;;;;;;5080177;28;20056;-57
2023/06/29 00:40:11;;;;;;;45.55;32.60;;;19.10;99.90;;;;;;5070540;28;20046;-56
2023/06/29 00:42:37;;;;;;;43.15;31.45;;;19.00;99.90;;;;;;5081842;28;20084;-57
2023/06/29 00:45:04;;;;;;;37.10;29.17;;;19.00;99.90;;;;;;5079608;28;20071;-57
2023/06/29 00:47:31;;;;;;;44.67;30.60;;;19.10;99.90;;;;;;5082021;28;20059;-57
2023/06/29 00:49:57;;;;;;;42.75;32.05;;;19.00;99.90;;;;;;5080683;28;20048;-57
2023/06/29 00:52:23;;;;;;;42.45;31.52;;;19.10;99.90;;;;;;5087171;28;20119;-57
2023/06/29 00:54:49;;;;;;;39.72;29.17;;;19.00;99.90;;;;;;5101488;28;20044;-56
2023/06/29 00:57:16;;;;;;;43.13;30.88;;;19.00;99.90;;;;;;5067616;28;20057;-57
2023/06/29 00:59:41;;;;;;;37.67;28.20;;;19.10;99.90;;;;;;5061981;28;20041;-57
2023/06/29 01:02:09;;;;;;;38.72;27.83;;;19.00;99.90;;;;;;5060021;28;20095;-57
2023/06/29 01:04:37;;;;;;;41.90;31.35;;;19.00;99.90;;;;;;5061783;28;20634;-57
2023/06/29 01:07:15;;;;;;;43.97;31.02;;;19.00;99.90;;;;;;5060061;28;20048;-57
2023/06/29 01:09:44;;;;;;;47.25;32.17;;;19.00;99.90;;;;;;5060328;28;20053;-58
2023/06/29 01:12:13;;;;;;;35.95;28.90;;;19.00;99.90;;;;;;5061110;28;20048;-57
2023/06/29 01:14:39;;;;;;;45.95;30.42;;;18.80;99.90;;;;;;5080029;28;20032;-57
2023/06/29 01:17:11;;;;;;;44.42;32.05;;;19.00;99.90;;;;;;5068764;28;20048;-56
2023/06/29 01:19:38;;;;;;;44.83;31.70;;;19.00;99.90;;;;;;5078005;28;20036;-56
2023/06/29 01:22:18;;;;;;;41.47;32.30;;;19.00;99.90;;;;;;5076685;28;20041;-56
2023/06/29 01:24:45;;;;;;;37.58;30.08;;;19.00;99.90;;;;;;5059033;28;20072;-56
2023/06/29 01:27:14;;;;;;;44.00;30.92;;;19.00;99.90;;;;;;5059412;28;20117;-56
2023/06/29 01:29:41;;;;;;;40.40;30.17;;;19.00;99.90;;;;;;5069803;28;20075;-56
2023/06/29 01:32:08;;;;;;;38.42;28.88;;;19.00;99.90;;;;;;5059746;28;20091;-57
2023/06/29 01:34:36;;;;;;;44.42;31.13;;;19.00;99.90;;;;;;5068350;28;20478;-56
2023/06/29 01:37:08;;;;;;;43.97;31.10;;;19.00;99.90;;;;;;5070662;28;20076;-57
2023/06/29 01:39:42;;;;;;;44.03;32.15;;;19.00;99.90;;;;;;5076974;28;20045;-56
2023/06/29 01:42:10;;;;;;;42.28;32.00;;;19.00;99.90;;;;;;5074483;28;20528;-56
2023/06/29 01:44:36;;;;;;;47.55;32.05;;;19.00;99.90;;;;;;5076694;28;20029;-57
2023/06/29 01:47:02;;;;;;;39.72;29.60;;;18.90;99.90;;;;;;5070482;28;20060;-58
2023/06/29 01:49:28;;;;;;;43.45;32.97;;;19.00;99.90;;;;;;5061193;28;20044;-57
2023/06/29 01:51:54;;;;;;;44.00;32.50;;;18.90;99.90;;;;;;5063614;28;20045;-57
2023/06/29 01:54:20;;;;;;;43.83;32.95;;;19.00;99.90;;;;;;5066550;28;20403;-56
2023/06/29 01:56:45;;;;;;;42.65;31.88;;;18.90;99.90;;;;;;5080362;28;20064;-56
2023/06/29 01:59:11;;;;;;;44.17;33.03;;;18.90;99.90;;;;;;5072692;28;20379;-57
2023/06/29 02:01:37;;;;;;;39.63;31.33;;;18.90;99.90;;;;;;5059649;28;20517;-57
2023/06/29 02:04:03;;;;;;;45.53;34.03;;;18.90;99.90;;;;;;5065240;28;20052;-57
2023/06/29 02:06:29;;;;;;;46.55;33.50;;;18.90;99.90;;;;;;5067043;28;20409;-56
2023/06/29 02:08:54;;;;;;;44.22;33.30;;;18.90;99.90;;;;;;5079067;28;20081;-57
2023/06/29 02:11:20;;;;;;;45.95;32.88;;;18.90;99.90;;;;;;5067728;28;20481;-58
2023/06/29 02:13:47;;;;;;;44.40;32.60;;;18.90;99.90;;;;;;5060450;28;20087;-58
2023/06/29 02:16:13;;;;;;;41.45;32.15;;;18.90;99.90;;;;;;5041791;28;20037;-58
2023/06/29 02:18:38;;;;;;;43.67;32.08;;;18.90;99.90;;;;;;5059828;28;20051;-56
2023/06/29 02:21:04;;;;;;;44.42;33.63;;;18.90;99.90;;;;;;5065035;28;20186;-56
2023/06/29 02:23:30;;;;;;;48.60;33.97;;;18.90;99.90;;;;;;5067647;28;20041;-57
2023/06/29 02:25:56;;;;;;;49.83;34.15;;;18.90;99.90;;;;;;5060359;28;20120;-57
2023/06/29 02:28:21;;;;;;;40.45;31.67;;;18.90;99.90;;;;;;5073832;28;20040;-57
2023/06/29 02:30:47;;;;;;;43.75;32.45;;;18.90;99.90;;;;;;5080373;28;20052;-62
2023/06/29 02:33:13;;;;;;;44.00;32.72;;;18.90;99.90;;;;;;5077718;28;20083;-57
2023/06/29 02:35:38;;;;;;;43.78;33.40;;;18.90;99.90;;;;;;5079401;28;20515;-57
2023/06/29 02:38:04;;;;;;;46.75;33.72;;;18.90;99.90;;;;;;5072927;28;20186;-57
2023/06/29 02:40:30;;;;;;;39.55;31.92;;;18.90;99.90;;;;;;5058516;28;20025;-56
2023/06/29 02:42:55;;;;;;;41.55;33.28;;;18.90;99.90;;;;;;5059873;28;20052;-56
2023/06/29 02:45:22;;;;;;;41.42;31.48;;;18.90;99.90;;;;;;5057848;28;20044;-57
2023/06/29 02:47:47;;;;;;;41.55;31.67;;;18.90;99.90;;;;;;5059791;28;20045;-56
2023/06/29 02:50:13;;;;;;;43.33;31.98;;;18.90;99.90;;;;;;5058413;28;20048;-57
2023/06/29 02:52:39;;;;;;;43.75;31.85;;;18.90;99.90;;;;;;5059491;28;20037;-56
2023/06/29 02:55:05;;;;;;;41.30;32.20;;;18.90;99.90;;;;;;5064140;28;20044;-56
2023/06/29 02:57:31;;;;;;;37.28;28.35;;;18.90;99.90;;;;;;5067390;28;20037;-57
2023/06/29 02:59:56;;;;;;;37.47;28.83;;;18.90;99.90;;;;;;5075022;28;20072;-58
2023/06/29 03:02:22;;;;;;;43.70;31.73;;;18.90;99.90;;;;;;5066846;28;20072;-57
2023/06/29 03:04:47;;;;;;;38.45;29.38;;;18.90;99.90;;;;;;5064684;28;20040;-57
2023/06/29 03:07:13;;;;;;;40.10;31.05;;;18.80;99.90;;;;;;5074274;28;20488;-56
2023/06/29 03:09:39;;;;;;;43.20;31.90;;;18.80;99.90;;;;;;5074768;28;20555;-57
2023/06/29 03:12:05;;;;;;;41.47;29.58;;;18.80;99.90;;;;;;5066287;28;20063;-58
2023/06/29 03:14:31;;;;;;;42.58;30.42;;;18.80;99.90;;;;;;5062689;28;20515;-57
2023/06/29 03:16:56;;;;;;;39.80;30.05;;;18.80;99.90;;;;;;5070007;28;20040;-58
2023/06/29 03:19:22;;;;;;;41.83;31.83;;;18.80;99.90;;;;;;5072119;28;20047;-57
2023/06/29 03:21:48;;;;;;;42.83;31.98;;;18.90;99.90;;;;;;5077622;28;20052;-57
2023/06/29 03:24:13;;;;;;;44.33;32.95;;;18.80;99.90;;;;;;5075575;28;20045;-57
2023/06/29 03:26:39;;;;;;;46.80;33.58;;;18.90;99.90;;;;;;5065431;28;20037;-57
2023/06/29 03:29:05;;;;;;;43.53;32.20;;;18.90;99.90;;;;;;5061130;28;20116;-59
2023/06/29 03:31:30;;;;;;;44.13;32.50;;;18.90;99.90;;;;;;5069499;28;20049;-57
2023/06/29 03:34:00;;;;;;;45.08;33.58;;;18.80;99.90;;;;;;5085449;28;20056;-57
2023/06/29 03:36:26;;;;;;;45.50;32.80;;;18.90;99.90;;;;;;5073262;28;20086;-58
2023/06/29 03:38:51;;;;;;;46.42;33.70;;;18.80;99.90;;;;;;5075094;28;20044;-60
2023/06/29 03:41:17;;;;;;;42.42;34.15;;;18.90;99.90;;;;;;5070751;28;20492;-56
2023/06/29 03:43:43;;;;;;;43.47;34.05;;;18.90;99.90;;;;;;5086058;28;20041;-57
2023/06/29 03:46:08;;;;;;;44.20;33.17;;;18.90;99.90;;;;;;5083738;28;20047;-57
2023/06/29 03:48:34;;;;;;;47.88;33.20;;;18.90;99.90;;;;;;5085289;28;20056;-57
2023/06/29 03:51:00;;;;;;;43.63;33.65;;;18.90;99.90;;;;;;5085868;28;20099;-57
2023/06/29 03:53:25;;;;;;;46.67;33.72;;;18.90;99.90;;;;;;5084530;28;20040;-55
2023/06/29 03:55:51;;;;;;;44.97;34.05;;;18.90;99.90;;;;;;5100318;28;20073;-56
2023/06/29 03:58:17;;;;;;;47.45;33.50;;;18.90;99.90;;;;;;5096445;28;20199;-57
2023/06/29 04:00:43;;;;;;;44.95;33.47;;;18.90;99.90;;;;;;5085760;28;20075;-56
2023/06/29 04:03:09;;;;;;;42.88;34.13;;;18.90;99.90;;;;;;5076595;28;20126;-57
2023/06/29 04:05:34;;;;;;;46.13;34.47;;;18.90;99.90;;;;;;5068418;28;20091;-57
2023/06/29 04:08:05;;;;;;;44.28;33.65;;;18.90;99.90;;;;;;5071493;28;20033;-57
2023/06/29 04:10:32;;;;;;;46.55;32.65;;;19.00;99.90;;;;;;5070126;28;20029;-56
2023/06/29 04:12:58;;;;;;;43.03;31.83;;;19.00;99.90;;;;;;5074349;28;20130;-57
2023/06/29 04:15:24;;;;;;;43.00;32.38;;;18.90;99.90;;;;;;5070661;28;20044;-57
2023/06/29 04:17:49;;;;;;;41.80;31.45;;;19.00;99.90;;;;;;5071000;28;20062;-57
2023/06/29 04:20:15;;;;;;;44.72;32.40;;;19.00;99.90;;;;;;5076999;28;20095;-55
2023/06/29 04:22:41;;;;;;;40.60;32.83;;;19.00;99.90;;;;;;5077525;28;20047;-56
2023/06/29 04:25:07;;;;;;;43.42;33.67;;;19.00;99.90;;;;;;5065307;28;20037;-56
2023/06/29 04:27:34;;;;;;;42.00;32.78;;;19.00;99.90;;;;;;5072358;28;20051;-55
2023/06/29 04:30:00;;;;;;;47.17;32.33;;;19.00;99.90;;;;;;5069608;28;20075;-56
2023/06/29 04:32:26;;;;;;;51.20;33.40;;;19.10;99.90;;;;;;5063708;28;20041;-57
2023/06/29 04:34:51;;;;;;;44.15;32.22;;;19.10;99.90;;;;;;5072145;28;20062;-56
2023/06/29 04:37:17;;;;;;;44.30;33.70;;;19.10;99.90;;;;;;5070156;28;20053;-56
2023/06/29 04:39:43;;;;;;;43.03;32.05;;;19.20;99.90;;;;;;5073642;28;20045;-57
2023/06/29 04:42:16;;;;;;;43.10;31.60;;;19.20;99.90;;;;;;5085029;28;20047;-56
2023/06/29 04:44:44;;;;;;;45.47;33.08;;;19.30;99.90;;;;;;5069325;28;20037;-56
2023/06/29 04:47:10;;;;;;;48.40;32.58;;;19.30;99.90;;;;;;5065880;28;20055;-59
2023/06/29 04:49:40;;;;;;;46.65;33.13;;;19.30;99.90;;;;;;5062033;28;20041;-56
2023/06/29 04:52:10;;;;;;;45.65;32.88;;;19.30;99.90;;;;;;5061107;28;20045;-56
2023/06/29 04:54:36;;;;;;;38.95;30.60;;;19.30;99.90;;;;;;5061628;28;20036;-56
2023/06/29 04:57:02;;;;;;;41.00;32.17;;;19.30;99.90;;;;;;5069269;28;20041;-56
2023/06/29 04:59:28;;;;;;;43.88;31.30;;;19.30;99.90;;;;;;5081182;28;20059;-57
2023/06/29 05:01:54;;;;;;;42.35;31.52;;;19.30;99.90;;;;;;5065548;28;20071;-56
2023/06/29 05:04:20;;;;;;;43.38;32.33;;;19.40;99.90;;;;;;5079254;28;20043;-57
2023/06/29 05:06:45;;;;;;;41.75;31.45;;;19.40;99.90;;;;;;5078304;28;20082;-57
2023/06/29 05:09:12;;;;;;;41.25;31.67;;;19.40;99.90;;;;;;5068675;28;20504;-56
2023/06/29 05:11:38;;;;;;;40.97;31.67;;;19.40;99.90;;;;;;5063566;28;20033;-57
2023/06/29 05:14:04;;;;;;;45.42;31.67;;;19.40;99.90;;;;;;5075694;28;20041;-57
2023/06/29 05:16:29;;;;;;;40.80;31.60;;;19.40;99.90;;;;;;5077653;28;20041;-57
2023/06/29 05:18:55;;;;;;;44.00;32.05;;;19.50;99.90;;;;;;5064570;28;20033;-56
2023/06/29 05:21:22;;;;;;;44.13;30.10;;;19.50;99.90;;;;;;5072583;28;20043;-57
2023/06/29 05:23:47;;;;;;;44.58;31.77;;;19.50;99.90;;;;;;5079862;28;20094;-57
2023/06/29 05:26:13;;;;;;;44.53;32.13;;;19.50;99.90;;;;;;5081569;28;20045;-57
2023/06/29 05:28:39;;;;;;;45.08;31.27;;;19.50;99.90;;;;;;5064874;28;20124;-56
2023/06/29 05:31:04;;;;;;;41.75;30.80;;;19.50;99.90;;;;;;5073190;28;20037;-58
2023/06/29 05:33:30;;;;;;;41.80;31.50;;;19.50;99.90;;;;;;5060350;28;20037;-56
2023/06/29 05:35:56;;;;;;;42.15;31.60;;;19.50;99.90;;;;;;5064025;28;20066;-57
2023/06/29 05:38:21;;;;;;;41.05;30.83;;;19.50;99.90;;;;;;5068057;28;20485;-57
2023/06/29 05:40:47;;;;;;;40.25;29.83;;;19.50;99.90;;;;;;5068033;28;20041;-57
2023/06/29 05:43:13;;;;;;;43.97;30.67;;;19.60;99.90;;;;;;5071683;28;20043;-58
2023/06/29 05:45:39;;;;;;;39.13;31.52;;;19.50;99.90;;;;;;5062789;28;20041;-57
2023/06/29 05:48:05;;;;;;;40.33;30.80;;;19.60;99.90;;;;;;5057250;28;20095;-59
2023/06/29 05:50:31;;;;;;;39.28;30.42;;;19.60;99.90;;;;;;5065139;28;20075;-58
2023/06/29 05:52:57;;;;;;;39.75;31.65;;;19.60;99.90;;;;;;5064795;28;20041;-59
2023/06/29 05:55:23;;;;;;;41.65;31.23;;;19.70;99.90;;;;;;5057959;28;20150;-59
2023/06/29 05:57:49;;;;;;;41.63;30.58;;;19.70;99.90;;;;;;5056723;28;20046;-60
2023/06/29 06:00:15;;;;;;;45.85;29.73;;;19.70;99.90;;;;;;5061870;28;20580;-59
2023/06/29 06:02:41;;;;;;;39.63;30.92;;;19.60;99.90;;;;;;5068727;28;20041;-59
2023/06/29 06:05:07;;;;;;;44.17;32.35;;;19.60;99.90;;;;;;5063693;28;20112;-59
2023/06/29 06:07:34;;;;;;;40.05;31.40;;;19.70;99.90;;;;;;5067407;28;20048;-59
2023/06/29 06:10:00;;;;;;;42.05;31.70;;;19.70;99.90;;;;;;5059678;28;20041;-60
2023/06/29 06:12:26;;;;;;;41.50;31.25;;;19.70;99.90;;;;;;5070737;28;20051;-59
2023/06/29 06:14:52;;;;;;;45.42;32.15;;;19.70;99.90;;;;;;5059908;28;20064;-57
2023/06/29 06:17:17;;;;;;;47.58;34.05;;;19.70;99.90;;;;;;5059028;28;20409;-59
2023/06/29 06:19:43;;;;;;;37.65;28.88;;;19.70;99.90;;;;;;5063542;28;20045;-59
2023/06/29 06:22:09;;;;;;;44.20;33.22;;;19.60;99.90;;;;;;5063079;28;20039;-58
2023/06/29 06:24:35;;;;;;;41.08;31.55;;;19.70;99.90;;;;;;5057240;28;20103;-59
2023/06/29 06:27:01;;;;;;;44.00;30.50;;;19.70;99.90;;;;;;5060841;28;20048;-59
2023/06/29 06:29:27;;;;;;;40.67;31.60;;;19.70;99.90;;;;;;5059590;28;20040;-59
2023/06/29 06:31:54;;;;;;;42.33;30.38;;;19.70;99.90;;;;;;5068174;28;20041;-57
2023/06/29 06:34:20;;;;;;;45.22;31.65;;;19.70;99.90;;;;;;5063902;28;20141;-59
2023/06/29 06:36:47;;;;;;;44.85;30.73;;;19.70;99.90;;;;;;5069981;28;20501;-58
2023/06/29 06:39:14;;;;;;;43.83;32.35;;;19.70;99.90;;;;;;5060984;28;20059;-59
2023/06/29 06:41:41;;;;;;;42.38;30.02;;;19.70;99.90;;;;;;5067947;28;20123;-59
2023/06/29 06:44:07;;;;;;;42.42;30.30;;;19.70;99.90;;;;;;5060622;28;20111;-59
2023/06/29 06:46:33;;;;;;;44.03;30.48;;;19.70;99.90;;;;;;5061775;28;20135;-58
2023/06/29 06:48:59;;;;;;;45.05;32.20;;;19.70;99.90;;;;;;5065713;28;20044;-59
2023/06/29 06:51:25;;;;;;;43.28;32.00;;;19.80;99.90;;;;;;5070285;28;20048;-59
2023/06/29 06:53:51;;;;;;;40.92;30.17;;;19.80;99.90;;;;;;5058641;28;20133;-58
2023/06/29 06:56:17;;;;;;;42.53;31.67;;;19.80;99.90;;;;;;5065695;28;20057;-59
2023/06/29 06:58:43;;;;;;;46.22;30.38;;;19.90;99.90;;;;;;5057887;28;20041;-59
2023/06/29 07:01:09;;;;;;;44.08;31.58;;;19.90;99.90;;;;;;5054582;28;20041;-57
2023/06/29 07:03:35;;;;;;;42.55;31.23;;;20.00;99.90;;;;;;5058165;28;20075;-59
2023/06/29 07:06:01;;;;;;;45.65;30.80;;;20.00;99.90;;;;;;5070452;28;20029;-58
2023/06/29 07:08:27;;;;;;;43.53;30.88;;;20.00;99.90;;;;;;5057031;28;20084;-58
2023/06/29 07:10:53;;;;;;;38.78;28.63;;;20.10;99.90;;;;;;5056639;28;20045;-58
2023/06/29 07:13:19;;;;;;;40.25;30.95;;;20.10;99.90;;;;;;5053375;28;20040;-59
2023/06/29 07:15:48;;;;;;;41.92;30.98;;;20.10;99.90;;;;;;5055154;28;20401;-58
2023/06/29 07:18:13;;;;;;;44.97;31.15;;;20.20;99.90;;;;;;5066287;28;20521;-58
2023/06/29 07:20:39;;;;;;;42.08;31.65;;;20.20;99.90;;;;;;5058280;28;20041;-59
2023/06/29 07:23:04;;;;;;;46.53;32.28;;;20.20;99.90;;;;;;5060168;28;20507;-58
2023/06/29 07:25:30;;;;;;;46.05;31.90;;;20.20;99.90;;;;;;5062570;28;20041;-59
2023/06/29 07:27:56;;;;;;;46.25;32.97;;;20.20;99.90;;;;;;5061251;28;20040;-59
2023/06/29 07:30:22;;;;;;;43.67;31.88;;;20.20;99.90;;;;;;5060205;28;20075;-60
2023/06/29 07:32:47;;;;;;;48.05;33.50;;;20.30;99.90;;;;;;5061643;28;20485;-59
2023/06/29 07:35:13;;;;;;;49.42;34.03;;;20.20;99.90;;;;;;5060196;28;20047;-59
2023/06/29 07:37:39;;;;;;;50.03;33.45;;;20.30;99.90;;;;;;5065803;28;20048;-60
2023/06/29 07:40:06;;;;;;;51.05;33.65;;;20.30;99.90;;;;;;5063324;28;20532;-60
2023/06/29 07:42:31;;;;;;;52.22;34.92;;;20.40;99.90;;;;;;5060686;28;20049;-59
2023/06/29 07:44:57;;;;;;;47.95;35.67;;;20.50;99.90;;;;;;5057284;28;20051;-57
2023/06/29 07:47:23;;;;;;;51.20;35.63;;;20.50;99.90;;;;;;5062814;28;20104;-58
2023/06/29 07:49:48;;;;;;;51.05;35.85;;;20.60;99.90;;;;;;5064975;28;20045;-59
2023/06/29 07:52:16;;;;;;;45.03;33.72;;;20.70;99.90;;;;;;5063250;28;20067;-59
2023/06/29 07:54:41;;;;;;;52.65;36.35;;;20.80;99.90;;;;;;5057377;28;20111;-59
2023/06/29 07:57:08;;;;;;;49.60;36.22;;;20.90;99.90;;;;;;5065743;28;20300;-58
2023/06/29 07:59:34;;;;;;;46.05;34.17;;;21.00;99.90;;;;;;5065556;28;20089;-59
2023/06/29 08:02:00;;;;;;;44.85;33.60;;;21.10;99.90;;;;;;5062048;28;20079;-58
2023/06/29 08:04:25;;;;;;;44.00;32.88;;;21.20;99.90;;;;;;5064030;28;20051;-60
2023/06/29 08:06:51;;;;;;;39.83;32.47;;;21.20;99.90;;;;;;5056442;28;20513;-58
2023/06/29 08:09:16;;;;;;;39.95;30.77;;;21.20;99.90;;;;;;5060102;28;20500;-58
2023/06/29 08:11:42;;;;;;;44.25;32.60;;;21.20;99.90;;;;;;5063245;28;21417;-59
2023/06/29 08:14:08;;;;;;;45.17;32.20;;;21.30;99.90;;;;;;5065922;28;20041;-59
2023/06/29 08:16:33;;;;;;;42.03;30.58;;;21.20;99.90;;;;;;5058427;28;20049;-58
2023/06/29 08:18:59;;;;;;;39.83;30.05;;;21.20;99.90;;;;;;5064965;28;20063;-58
2023/06/29 08:21:25;;;;;;;43.78;30.90;;;21.20;99.90;;;;;;5066715;28;20040;-59
2023/06/29 08:23:51;;;;;;;44.00;30.45;;;21.20;99.90;;;;;;5065254;28;20043;-58
2023/06/29 08:26:17;;;;;;;43.75;30.33;;;21.20;99.90;;;;;;5074052;28;20048;-58
2023/06/29 08:28:43;;;;;;;39.05;30.42;;;21.10;99.90;;;;;;5063123;28;20051;-57
2023/06/29 08:31:09;;;;;;;42.08;29.30;;;21.00;99.90;;;;;;5063831;28;20090;-58
2023/06/29 08:33:35;;;;;;;40.42;28.25;;;21.00;99.90;;;;;;5064636;28;20056;-59
2023/06/29 08:36:00;;;;;;;41.75;26.90;;;20.90;99.90;;;;;;5064194;28;20037;-59
2023/06/29 08:38:26;;;;;;;39.95;28.17;;;21.00;99.90;;;;;;5060917;28;20063;-59
2023/06/29 08:40:52;;;;;;;37.00;26.70;;;21.00;99.90;;;;;;5065186;28;20058;-58
2023/06/29 08:43:18;;;;;;;35.80;27.92;;;21.00;99.90;;;;;;5060895;28;20039;-58
2023/06/29 08:45:45;;;;;;;36.15;26.98;;;21.00;99.90;;;;;;5065111;28;20045;-58
2023/06/29 08:48:13;;;;;;;38.53;29.00;;;21.00;99.90;;;;;;5059712;28;20550;-59
2023/06/29 08:50:44;;;;;;;36.90;27.58;;;21.10;99.90;;;;;;5060157;28;20049;-58
2023/06/29 08:53:12;;;;;;;37.97;26.95;;;21.10;99.90;;;;;;5064736;28;20041;-58
2023/06/29 08:55:39;;;;;;;39.03;27.92;;;21.00;99.90;;;;;;5067061;28;20512;-58
2023/06/29 08:58:05;;;;;;;38.80;27.52;;;21.00;99.90;;;;;;5063813;28;20040;-57
2023/06/29 09:00:31;;;;;;;37.08;27.02;;;21.00;99.90;;;;;;5061158;28;20045;-58
2023/06/29 09:02:57;;;;;;;38.17;26.70;;;21.00;99.90;;;;;;5061297;28;20108;-59
2023/06/29 09:05:23;;;;;;;39.20;28.45;;;20.90;99.90;;;;;;5070799;28;20601;-59
2023/06/29 09:07:50;;;;;;;35.65;27.25;;;21.00;99.90;;;;;;5067053;28;20060;-58
2023/06/29 09:10:16;;;;;;;35.45;27.15;;;21.00;99.90;;;;;;5062629;28;20040;-58
2023/06/29 09:12:41;;;;;;;38.70;28.02;;;21.00;99.90;;;;;;5068623;28;20041;-60
2023/06/29 09:15:13;;;;;;;38.40;28.10;;;21.00;99.90;;;;;;5072088;28;20040;-59
2023/06/29 09:17:45;;;;;;;39.45;27.35;;;21.00;99.90;;;;;;5067345;28;20390;-60
2023/06/29 09:20:15;;;;;;;38.33;27.80;;;21.00;99.90;;;;;;5061966;28;20045;-59
2023/06/29 09:22:41;;;;;;;41.50;30.05;;;21.10;99.90;;;;;;5063376;28;20048;-59
2023/06/29 09:25:09;;;;;;;38.05;28.38;;;21.10;99.90;;;;;;5066763;28;20039;-59
2023/06/29 09:27:35;;;;;;;40.58;28.83;;;21.20;99.90;;;;;;5069199;28;20053;-59
2023/06/29 09:30:03;;;;;;;41.58;28.92;;;21.30;99.90;;;;;;5063263;28;20086;-61
2023/06/29 09:32:29;;;;;;;38.42;29.33;;;21.30;99.90;;;;;;5062191;28;20032;-59
2023/06/29 09:34:55;;;;;;;39.47;29.63;;;21.30;99.90;;;;;;5062215;28;20056;-59
2023/06/29 09:37:21;;;;;;;36.20;28.25;;;21.40;99.90;;;;;;5064026;28;20580;-59
2023/06/29 09:40:00;;;;;;;43.47;29.02;;;21.40;99.90;;;;;;5058148;28;20045;-59
2023/06/29 09:42:29;;;;;;;43.63;29.08;;;21.40;99.90;;;;;;5062967;28;20087;-59
2023/06/29 09:45:00;;;;;;;41.63;29.15;;;21.40;99.90;;;;;;5058905;28;20045;-59
2023/06/29 09:47:25;;;;;;;38.95;29.02;;;21.40;99.90;;;;;;5075955;28;20512;-57
2023/06/29 09:49:51;;;;;;;44.47;29.67;;;21.40;99.90;;;;;;5060069;28;20037;-59
2023/06/29 09:52:17;;;;;;;38.33;27.25;;;21.40;99.90;;;;;;5066553;28;20123;-59
2023/06/29 09:54:43;;;;;;;38.97;27.73;;;21.40;99.90;;;;;;5070081;28;20070;-58
2023/06/29 09:57:13;;;;;;;35.33;27.10;;;21.40;99.90;;;;;;5060206;28;20045;-59
2023/06/29 09:59:41;;;;;;;40.60;27.77;;;21.40;99.90;;;;;;5065504;28;20373;-58
2023/06/29 10:02:08;;;;;;;36.00;27.33;;;21.40;99.90;;;;;;5060101;28;20040;-59
2023/06/29 10:04:35;;;;;;;37.97;26.73;;;21.40;99.90;;;;;;5061509;28;20037;-59
2023/06/29 10:07:21;;;;;;;38.35;27.65;;;21.50;99.90;;;;;;5062527;28;20097;-59
2023/06/29 10:09:48;;;;;;;;;;;21.50;99.90;;;;;;5059957;28;20080;-62
2023/06/29 10:12:16;;;;;;;36.47;26.02;;;21.60;99.90;;;;;;5059400;28;19924;-61
2023/06/29 10:14:44;;;;;;;36.30;27.65;;;21.60;99.90;;;;;;5060172;28;20052;-62
2023/06/29 10:17:32;;;;;;;33.72;26.48;;;21.70;99.90;;;;;;5060533;28;20060;-61
2023/06/29 10:20:01;;;;;;;37.85;26.58;;;21.70;99.90;;;;;;5058644;28;20045;-61
2023/06/29 10:22:27;;;;;;;34.22;26.23;;;21.80;99.90;;;;;;5064134;28;20043;-60
2023/06/29 10:25:01;;;;;;;37.53;27.65;;;21.80;99.90;;;;;;5062593;28;20044;-61
2023/06/29 10:27:29;;;;;;;39.75;28.75;;;21.90;99.90;;;;;;5064904;28;20121;-60
2023/06/29 10:29:55;;;;;;;37.78;27.85;;;21.90;99.90;;;;;;5059984;28;20072;-60
2023/06/29 10:32:35;;;;;;;36.13;28.25;;;21.90;99.90;;;;;;5060821;28;20052;-61
2023/06/29 10:35:09;;;;;;;38.83;28.88;;;21.90;99.90;;;;;;5069155;28;20603;-60
2023/06/29 10:37:35;;;;;;;36.22;28.27;;;22.10;99.90;;;;;;5063631;28;20441;-60
2023/06/29 10:40:05;;;;;;;37.10;29.40;;;22.20;99.90;;;;;;5058919;28;20056;-60
2023/06/29 10:42:39;;;;;;;36.47;29.30;;;22.40;99.90;;;;;;5059100;28;20512;-61
2023/06/29 10:45:20;;;;;;;36.95;29.15;;;22.60;99.90;;;;;;5062466;28;20048;-60
2023/06/29 10:47:59;;;;;;;39.00;29.27;;;22.80;99.90;;;;;;5063327;28;20057;-60
2023/06/29 10:50:41;;;;;;;38.45;29.23;;;22.90;99.90;;;;;;5058854;28;20048;-60
2023/06/29 10:53:15;;;;;;;35.45;28.30;;;23.00;99.90;;;;;;5062902;28;20053;-60
2023/06/29 10:55:53;;;;;;;37.60;29.67;;;23.10;99.90;;;;;;5061946;28;20037;-60
2023/06/29 10:58:28;;;;;;;36.85;29.95;;;23.20;99.90;;;;;;5057946;28;20068;-60
2023/06/29 11:00:55;;;;;;;35.67;30.10;;;23.20;99.90;;;;;;5067895;28;20052;-60
2023/06/29 11:03:22;;;;;;;36.63;30.17;;;23.20;99.90;;;;;;5068908;28;20037;-60
2023/06/29 11:05:50;;;;;;;40.15;29.95;;;23.20;99.90;;;;;;5058591;28;20032;-60
2023/06/29 11:08:17;;;;;;;41.20;31.17;;;23.20;99.90;;;;;;5070127;28;20028;-60
2023/06/29 11:10:44;;;;;;;37.92;29.70;;;23.20;99.90;;;;;;5060018;28;20071;-61
2023/06/29 11:13:11;;;;;;;38.78;29.88;;;23.30;99.90;;;;;;5060507;28;20048;-60
2023/06/29 11:15:37;;;;;;;37.17;29.50;;;23.50;99.90;;;;;;5063151;28;20047;-60
2023/06/29 11:18:05;;;;;;;35.58;28.27;;;23.70;99.90;;;;;;5062252;28;20041;-60
2023/06/29 11:20:33;;;;;;;37.67;29.70;;;23.90;99.90;;;;;;5055600;28;20047;-60
2023/06/29 11:22:59;;;;;;;35.05;27.60;;;24.00;99.90;;;;;;5059567;28;20040;-61
2023/06/29 11:25:28;;;;;;;37.75;28.98;;;24.00;99.90;;;;;;5058219;28;20048;-61
2023/06/29 11:27:54;;;;;;;33.75;27.80;;;24.10;99.90;;;;;;5061703;28;20045;-60
2023/06/29 11:30:20;;;;;;;34.78;27.33;;;24.10;99.90;;;;;;5059622;28;20041;-61
2023/06/29 11:32:50;;;;;;;35.92;28.90;;;24.20;99.90;;;;;;5059106;28;20033;-61
2023/06/29 11:35:20;;;;;;;36.83;28.30;;;24.20;99.90;;;;;;5061868;28;20045;-61
2023/06/29 11:37:46;;;;;;;37.80;27.90;;;24.20;99.90;;;;;;5058108;28;20041;-60
2023/06/29 11:40:20;;;;;;;34.35;27.20;;;24.30;99.90;;;;;;5056723;28;20051;-61
2023/06/29 11:42:46;;;;;;;34.72;26.83;;;24.20;99.90;;;;;;5058222;28;20045;-60
2023/06/29 11:45:13;;;;;;;35.08;27.63;;;24.20;99.90;;;;;;5057787;28;20119;-62
2023/06/29 11:47:38;;;;;;;36.70;28.20;;;24.20;99.90;;;;;;5059013;28;20053;-63
2023/06/29 11:50:07;;;;;;;38.38;27.90;;;24.20;99.90;;;;;;5066385;28;20037;-61
2023/06/29 11:52:34;;;;;;;39.58;28.52;;;24.30;99.90;;;;;;5058316;28;20045;-63
2023/06/29 11:55:01;;;;;;;39.60;27.17;;;24.40;99.90;;;;;;5070113;28;20462;-62
2023/06/29 11:57:31;;;;;;;35.30;26.95;;;24.40;99.90;;;;;;5060802;28;20093;-62
2023/06/29 11:59:57;;;;;;;36.70;28.20;;;24.40;99.90;;;;;;5065384;28;20753;-62
2023/06/29 12:02:23;;;;;;;33.72;26.40;;;24.40;99.90;;;;;;5059182;28;20093;-62
2023/06/29 12:04:59;;;;;;;34.47;27.52;;;24.40;99.90;;;;;;5061816;28;20079;-61
2023/06/29 12:07:41;;;;;;;35.30;26.63;;;24.30;99.90;;;;;;5064984;28;20599;-61
2023/06/29 12:10:10;;;;;;;39.42;27.48;;;24.40;99.90;;;;;;5069733;28;20439;-62
2023/06/29 12:12:43;;;;;;;41.08;29.13;;;24.30;99.90;;;;;;5076464;28;20032;-61
2023/06/29 12:15:19;;;;;;;35.50;28.70;;;24.40;99.90;;;;;;5060629;28;20508;-62
2023/06/29 12:17:48;;;;;;;35.88;28.58;;;24.40;99.90;;;;;;5062201;28;20527;-61
2023/06/29 12:20:24;;;;;;;32.80;26.05;;;24.40;99.90;;;;;;5064642;28;20029;-61
2023/06/29 12:22:53;;;;;;;39.88;25.70;;;24.50;99.90;;;;;;5062206;28;20123;-61
2023/06/29 12:25:19;;;;;;;37.10;27.95;;;24.60;99.90;;;;;;5066024;28;20045;-62
2023/06/29 12:27:47;;;;;;;38.15;28.70;;;24.60;99.90;;;;;;5067890;28;20044;-62